Main page
METAR-TAF:

METAR-TAF

Airports :

Plovdiv Airport

Plovdiv, Bulgaria

latitude: 42-08N, longitude: 024-45E, elevation: 179 m

Current weather observation

The report was made 18 minutes ago, at 00:00 UTC
Wind 5 kt from the South/Southwest
Temperature 3°C
Humidity 81%
Pressure 1030 hPa
Visibility 10 km or more
Overcast at a height of 5900 ft

METAR: LBPD 160000Z AUTO 20005KT 9999 OVC059 03/M00 Q1030

Time: 02:18 (00:18 UTC)

Forecast

The report was made 1 hour and 18 minutes ago, at 23:00 UTC
Forecast valid from 16 at 00 UTC to 16 at 24 UTC
Wind 4 kt from variable directions
Visibility 10 km or more
Scattered clouds at a height of 5000 ft
Probability 30% :
Temporary
from 16 at 03 UTC to 16 at 07 UTC
Visibility: 5000 m
mist

TAF: LBPD 152300Z 1600/1624 VRB04KT 9999 SCT050 PROB30 TEMPO 1603/1607 5000 BR NSC

Weather observations and forecasts of more than 4000 airports (METAR and TAF reports).

The available stations are represented by yellow and red dots on the map.

Hover mouse over dot to see the name of the station.

Then click to see weather observations and forecasts.

To change the map : click on the green buttons with a black cross to zoom in, on the green button with a dash to zoom out, or on the green arrows for adjacent maps.


METAR-TAF: